createdAt,value
2023-03-16T00:01:44.755Z,96.71
2023-03-16T00:04:11.604Z,96.38
2023-03-16T00:06:38.350Z,96.58
2023-03-16T00:09:05.097Z,96.50
2023-03-16T00:11:32.146Z,96.43
2023-03-16T00:13:59.042Z,96.40
2023-03-16T00:16:25.835Z,96.59
2023-03-16T00:18:52.676Z,96.69
2023-03-16T00:21:19.445Z,96.91
2023-03-16T00:23:46.316Z,96.57
2023-03-16T00:26:13.309Z,97.11
2023-03-16T00:28:41.572Z,96.89
2023-03-16T00:31:14.955Z,97.14
2023-03-16T00:33:43.138Z,97.24
2023-03-16T00:36:11.443Z,97.26
2023-03-16T00:38:40.780Z,97.42
2023-03-16T00:41:09.342Z,97.43
2023-03-16T00:43:41.161Z,97.32
2023-03-16T00:46:09.994Z,97.36
2023-03-16T00:48:38.768Z,97.34
2023-03-16T00:51:07.980Z,97.44
2023-03-16T00:53:36.175Z,97.37
2023-03-16T00:56:04.620Z,97.39
2023-03-16T00:58:36.747Z,97.33
2023-03-16T01:01:09.393Z,97.32
2023-03-16T01:03:36.651Z,97.24
2023-03-16T01:06:10.380Z,97.21
2023-03-16T01:08:42.145Z,97.34
2023-03-16T01:11:22.104Z,97.03
2023-03-16T01:13:50.903Z,97.18
2023-03-16T01:16:23.861Z,97.07
2023-03-16T01:18:50.738Z,96.92
2023-03-16T01:21:17.806Z,96.80
2023-03-16T01:23:44.602Z,96.94
2023-03-16T01:26:12.182Z,96.77
2023-03-16T01:28:39.074Z,96.68
2023-03-16T01:31:09.598Z,96.65
2023-03-16T01:33:36.964Z,96.84
2023-03-16T01:36:06.803Z,96.63
2023-03-16T01:38:33.829Z,96.46
2023-03-16T01:41:00.964Z,96.74
2023-03-16T01:43:30.759Z,96.75
2023-03-16T01:46:06.564Z,96.39
2023-03-16T01:48:47.450Z,96.58
2023-03-16T01:51:29.981Z,96.29
2023-03-16T01:54:02.537Z,96.23
2023-03-16T01:56:45.746Z,96.10
2023-03-16T01:59:17.458Z,96.29
2023-03-16T02:01:46.395Z,96.08
2023-03-16T02:04:40.213Z,96.20
2023-03-16T02:07:08.133Z,96.35
2023-03-16T02:09:39.211Z,96.11
2023-03-16T02:12:07.840Z,96.16
2023-03-16T02:14:34.567Z,96.01
2023-03-16T02:17:01.669Z,95.93
2023-03-16T02:19:46.825Z,95.71
2023-03-16T02:22:14.438Z,96.34
2023-03-16T02:24:42.367Z,96.21
2023-03-16T02:27:17.746Z,95.89
2023-03-16T02:29:56.181Z,95.84
2023-03-16T02:32:26.726Z,95.83
2023-03-16T02:34:55.237Z,95.49
2023-03-16T02:37:21.953Z,95.94
2023-03-16T02:39:48.713Z,95.84
2023-03-16T02:42:22.065Z,95.46
2023-03-16T02:44:58.258Z,95.30
2023-03-16T02:47:33.315Z,95.55
2023-03-16T02:50:00.368Z,95.37
2023-03-16T02:52:27.126Z,95.50
2023-03-16T02:54:53.872Z,95.17
2023-03-16T02:57:21.373Z,95.43
2023-03-16T02:59:48.103Z,95.08
2023-03-16T03:02:14.790Z,95.31
2023-03-16T03:04:42.146Z,94.82
2023-03-16T03:07:08.913Z,95.10
2023-03-16T03:09:35.653Z,94.97
2023-03-16T03:12:02.904Z,94.85
2023-03-16T03:14:29.722Z,94.92
2023-03-16T03:16:56.848Z,94.93
2023-03-16T03:19:23.822Z,94.73
2023-03-16T03:21:50.778Z,94.34
2023-03-16T03:24:18.191Z,94.31
2023-03-16T03:26:45.382Z,94.33
2023-03-16T03:29:12.696Z,94.41
2023-03-16T03:31:39.510Z,94.44
2023-03-16T03:34:06.986Z,94.07
2023-03-16T03:36:34.686Z,93.92
2023-03-16T03:39:05.161Z,93.83
2023-03-16T03:41:33.156Z,93.97
2023-03-16T03:44:01.129Z,93.84
2023-03-16T03:46:27.925Z,93.66
2023-03-16T03:48:55.006Z,93.42
2023-03-16T03:51:21.862Z,93.11
2023-03-16T03:53:48.534Z,93.28
2023-03-16T03:56:15.484Z,92.99
2023-03-16T03:58:42.451Z,92.81
2023-03-16T04:01:09.115Z,92.70
2023-03-16T04:03:35.894Z,92.94
2023-03-16T04:06:02.779Z,92.55
2023-03-16T04:08:29.944Z,92.43
2023-03-16T04:10:56.794Z,92.61
2023-03-16T04:13:23.503Z,92.39
2023-03-16T04:15:55.910Z,92.42
2023-03-16T04:18:22.879Z,92.30
2023-03-16T04:20:49.707Z,92.04
2023-03-16T04:23:17.138Z,91.92
2023-03-16T04:25:45.582Z,91.59
2023-03-16T04:28:12.587Z,91.83
2023-03-16T04:30:39.532Z,91.78
2023-03-16T04:33:06.705Z,91.52
2023-03-16T04:35:33.481Z,91.67
2023-03-16T04:38:00.253Z,91.31
2023-03-16T04:40:27.471Z,91.50
2023-03-16T04:42:54.341Z,91.41
2023-03-16T04:45:21.000Z,91.01
2023-03-16T04:47:47.874Z,91.15
2023-03-16T04:50:14.638Z,90.81
2023-03-16T04:52:41.527Z,91.29
2023-03-16T04:55:08.838Z,90.85
2023-03-16T04:57:35.632Z,90.88
2023-03-16T05:00:02.460Z,90.92
2023-03-16T05:02:29.349Z,90.79
2023-03-16T05:04:56.059Z,90.53
2023-03-16T05:07:22.770Z,90.73
2023-03-16T05:09:49.505Z,90.24
2023-03-16T05:12:16.198Z,90.54
2023-03-16T05:14:42.877Z,90.36
2023-03-16T05:17:09.641Z,90.31
2023-03-16T05:19:36.357Z,90.46
2023-03-16T05:22:03.038Z,90.03
2023-03-16T05:24:29.958Z,90.44
2023-03-16T05:26:57.597Z,90.42
2023-03-16T05:29:26.134Z,90.10
2023-03-16T05:31:53.053Z,90.21
2023-03-16T05:34:19.721Z,90.11
2023-03-16T05:36:46.403Z,90.14
2023-03-16T05:39:13.467Z,89.74
2023-03-16T05:41:40.800Z,89.87
2023-03-16T05:44:08.335Z,90.04
2023-03-16T05:46:35.438Z,89.83
2023-03-16T05:49:02.849Z,89.52
2023-03-16T05:51:29.536Z,89.87
2023-03-16T05:53:56.969Z,89.63
2023-03-16T05:56:28.278Z,89.74
2023-03-16T05:58:56.086Z,89.53
2023-03-16T06:01:23.722Z,89.74
2023-03-16T06:03:52.108Z,89.59
2023-03-16T06:06:20.640Z,89.59
2023-03-16T06:08:47.688Z,89.18
2023-03-16T06:11:15.090Z,89.46
2023-03-16T06:13:41.775Z,89.22
2023-03-16T06:16:09.194Z,89.12
2023-03-16T06:18:36.004Z,89.23
2023-03-16T06:21:03.975Z,89.09
2023-03-16T06:23:30.842Z,89.12
2023-03-16T06:25:59.684Z,88.90
2023-03-16T06:28:27.060Z,89.01
2023-03-16T06:30:55.694Z,88.74
2023-03-16T06:33:22.935Z,88.71
2023-03-16T06:35:50.050Z,88.75
2023-03-16T06:38:17.826Z,88.81
2023-03-16T06:40:44.739Z,88.90
2023-03-16T06:43:12.086Z,88.84
2023-03-16T06:45:38.947Z,88.74
2023-03-16T06:48:07.064Z,88.42
2023-03-16T06:50:33.774Z,88.63
2023-03-16T06:53:00.684Z,88.16
2023-03-16T06:55:27.370Z,88.04
2023-03-16T06:57:54.079Z,88.30
2023-03-16T07:00:21.915Z,88.08
2023-03-16T07:02:48.684Z,88.22
2023-03-16T07:05:15.376Z,87.97
2023-03-16T07:07:43.100Z,87.85
2023-03-16T07:10:14.882Z,87.99
2023-03-16T07:12:42.448Z,87.48
2023-03-16T07:15:10.046Z,87.94
2023-03-16T07:17:36.936Z,87.46
2023-03-16T07:20:05.892Z,87.38
2023-03-16T07:22:33.072Z,87.35
2023-03-16T07:24:59.911Z,87.27
2023-03-16T07:27:26.608Z,87.61
2023-03-16T07:29:53.806Z,87.36
2023-03-16T07:32:20.733Z,87.23
2023-03-16T07:34:47.848Z,87.39
2023-03-16T07:37:18.342Z,87.45
2023-03-16T07:39:48.447Z,87.63
2023-03-16T07:42:15.440Z,87.65
2023-03-16T07:44:42.486Z,87.58
2023-03-16T07:47:12.799Z,87.70
2023-03-16T07:49:41.520Z,87.34
2023-03-16T07:52:08.713Z,87.57
2023-03-16T07:54:35.493Z,87.52
2023-03-16T07:57:02.152Z,87.51
2023-03-16T07:59:29.076Z,87.60
2023-03-16T08:01:55.885Z,87.68
2023-03-16T08:04:22.648Z,87.91
2023-03-16T08:06:49.752Z,87.58
2023-03-16T08:09:16.444Z,87.44
2023-03-16T08:11:43.348Z,87.62
2023-03-16T08:14:10.254Z,87.17
2023-03-16T08:16:37.536Z,87.10
2023-03-16T08:19:04.348Z,87.35
2023-03-16T08:21:31.113Z,87.18
2023-03-16T08:23:57.867Z,86.77
2023-03-16T08:26:24.851Z,86.42
2023-03-16T08:28:52.397Z,86.30
2023-03-16T08:31:20.784Z,85.99
2023-03-16T08:33:48.979Z,85.96
2023-03-16T08:36:18.173Z,85.65
2023-03-16T08:38:59.937Z,85.42
2023-03-16T08:41:35.056Z,84.76
2023-03-16T08:44:03.285Z,84.60
2023-03-16T08:46:30.845Z,84.19
2023-03-16T08:48:57.806Z,83.78
2023-03-16T08:51:25.023Z,83.43
2023-03-16T08:53:51.881Z,82.90
2023-03-16T08:56:18.728Z,82.65
2023-03-16T08:58:46.125Z,82.37
2023-03-16T09:01:20.606Z,82.17
2023-03-16T09:03:47.604Z,81.47
2023-03-16T09:06:16.440Z,81.12
2023-03-16T09:08:45.621Z,80.51
2023-03-16T09:11:15.667Z,80.24
2023-03-16T09:13:42.945Z,80.09
2023-03-16T09:16:10.650Z,79.54
2023-03-16T09:18:37.532Z,79.42
2023-03-16T09:21:06.918Z,79.38
2023-03-16T09:23:35.141Z,79.19
2023-03-16T09:26:05.527Z,78.81
2023-03-16T09:28:32.923Z,78.66
2023-03-16T09:31:00.415Z,78.25
2023-03-16T09:33:32.078Z,77.63
2023-03-16T09:35:58.793Z,77.59
2023-03-16T09:38:29.197Z,77.60
2023-03-16T09:41:02.010Z,77.54
2023-03-16T09:43:47.506Z,77.33
2023-03-16T09:46:36.540Z,77.24
2023-03-16T09:49:03.813Z,77.48
2023-03-16T09:51:39.102Z,77.13
2023-03-16T09:54:17.598Z,76.89
2023-03-16T09:56:45.515Z,76.71
2023-03-16T09:59:14.373Z,76.75
2023-03-16T10:01:44.080Z,76.27
2023-03-16T10:04:48.078Z,76.06
2023-03-16T10:07:36.761Z,75.88
2023-03-16T10:10:24.815Z,75.18
2023-03-16T10:12:54.213Z,74.52
2023-03-16T10:15:27.374Z,74.53
2023-03-16T10:18:07.319Z,73.89
2023-03-16T10:20:35.115Z,73.47
2023-03-16T10:23:17.222Z,73.25
2023-03-16T10:25:50.207Z,73.13
2023-03-16T10:28:22.303Z,72.42
2023-03-16T10:30:52.771Z,72.22
2023-03-16T10:33:30.164Z,71.57
2023-03-16T10:36:26.107Z,71.29
2023-03-16T10:39:03.405Z,70.89
2023-03-16T10:41:36.745Z,70.42
2023-03-16T10:44:10.229Z,70.27
2023-03-16T10:46:43.100Z,70.19
2023-03-16T10:49:36.126Z,70.32
2023-03-16T10:52:14.499Z,70.10
2023-03-16T10:54:47.933Z,69.56
2023-03-16T10:57:25.777Z,69.42
2023-03-16T10:59:56.907Z,69.86
2023-03-16T11:02:35.608Z,69.71
2023-03-16T11:05:24.850Z,70.04
2023-03-16T11:07:59.921Z,69.86
2023-03-16T11:10:29.561Z,69.75
2023-03-16T11:13:06.864Z,69.55
2023-03-16T11:15:40.030Z,69.41
2023-03-16T11:18:16.630Z,69.05
2023-03-16T11:20:44.111Z,68.58
2023-03-16T11:23:16.855Z,68.40
2023-03-16T11:25:47.206Z,67.94
2023-03-16T11:28:24.953Z,67.55
2023-03-16T11:31:11.993Z,67.26
2023-03-16T11:33:38.943Z,66.57
2023-03-16T11:36:30.219Z,66.21
2023-03-16T11:39:12.872Z,65.82
2023-03-16T11:41:48.560Z,65.47
2023-03-16T11:44:20.176Z,65.18
2023-03-16T11:47:00.677Z,64.99
2023-03-16T11:49:50.362Z,64.84
2023-03-16T11:52:38.543Z,64.45
2023-03-16T11:55:20.117Z,64.09
2023-03-16T11:58:16.679Z,63.90
2023-03-16T12:00:49.323Z,63.52
2023-03-16T12:03:54.082Z,62.99
2023-03-16T12:06:51.739Z,62.45
2023-03-16T12:09:18.708Z,61.41
2023-03-16T12:11:53.618Z,60.82
2023-03-16T12:14:23.633Z,60.29
2023-03-16T12:17:02.989Z,59.49
2023-03-16T12:19:51.681Z,59.25
2023-03-16T12:22:28.455Z,58.66
2023-03-16T12:24:55.436Z,58.01
2023-03-16T12:27:30.269Z,57.46
2023-03-16T12:30:25.837Z,57.13
2023-03-16T12:33:00.851Z,56.62
2023-03-16T12:35:28.379Z,56.33
2023-03-16T12:38:19.015Z,55.43
2023-03-16T12:41:06.516Z,54.66
2023-03-16T12:43:47.688Z,54.03
2023-03-16T12:46:18.799Z,53.60
2023-03-16T12:48:53.977Z,53.21
2023-03-16T12:51:20.846Z,53.19
2023-03-16T12:53:55.528Z,53.20
2023-03-16T12:56:31.542Z,53.16
2023-03-16T12:59:01.083Z,53.22
2023-03-16T13:01:39.548Z,53.04
2023-03-16T13:04:12.632Z,53.06
2023-03-16T13:06:45.746Z,53.46
2023-03-16T13:09:18.467Z,53.39
2023-03-16T13:11:50.631Z,53.04
2023-03-16T13:14:34.188Z,52.59
2023-03-16T13:17:24.360Z,51.98
2023-03-16T13:20:20.909Z,51.80
2023-03-16T13:23:50.002Z,51.30
2023-03-16T13:26:22.925Z,51.09
2023-03-16T13:28:55.341Z,50.67
2023-03-16T13:31:41.774Z,49.31
2023-03-16T13:34:15.065Z,49.00
2023-03-16T13:36:45.161Z,49.07
2023-03-16T13:39:19.186Z,48.87
2023-03-16T13:42:12.800Z,47.79
2023-03-16T13:44:41.517Z,46.25
2023-03-16T13:47:08.582Z,44.79
2023-03-16T13:50:03.865Z,43.09
2023-03-16T13:52:35.588Z,41.55
2023-03-16T13:55:14.281Z,40.82
2023-03-16T13:57:42.485Z,40.60
2023-03-16T14:00:20.399Z,39.51
2023-03-16T14:02:52.340Z,38.89
2023-03-16T14:05:24.779Z,37.69
2023-03-16T14:07:52.150Z,36.85
2023-03-16T14:10:19.927Z,35.75
2023-03-16T14:12:58.428Z,35.05
2023-03-16T14:15:27.858Z,34.20
2023-03-16T14:18:05.258Z,33.20
2023-03-16T14:20:34.968Z,32.64
2023-03-16T14:23:18.368Z,31.54
2023-03-16T14:25:45.420Z,31.04
2023-03-16T14:28:17.591Z,30.22
2023-03-16T14:30:51.736Z,29.84
2023-03-16T14:33:33.644Z,29.57
2023-03-16T14:36:13.148Z,28.70
2023-03-16T14:38:41.827Z,28.13
2023-03-16T14:41:09.675Z,27.95
2023-03-16T14:43:41.493Z,27.63
2023-03-16T14:46:11.673Z,27.46
2023-03-16T14:48:38.800Z,27.66
2023-03-16T14:51:06.604Z,27.46
2023-03-16T14:53:33.306Z,26.79
2023-03-16T14:56:00.099Z,26.56
2023-03-16T14:58:27.109Z,26.47
2023-03-16T15:00:54.787Z,27.06
2023-03-16T15:03:30.573Z,28.03
2023-03-16T15:05:57.363Z,28.89
2023-03-16T15:08:27.232Z,30.09
2023-03-16T15:10:57.807Z,31.22
2023-03-16T15:13:35.061Z,32.30
2023-03-16T15:16:05.870Z,32.88
2023-03-16T15:18:33.901Z,33.52
2023-03-16T15:21:02.320Z,34.23
2023-03-16T15:23:31.045Z,34.96
2023-03-16T15:26:02.897Z,35.76
2023-03-16T15:28:29.738Z,36.29
2023-03-16T15:30:59.279Z,36.14
2023-03-16T15:33:26.684Z,35.36
2023-03-16T15:35:58.696Z,34.93
2023-03-16T15:38:29.452Z,35.35
2023-03-16T15:40:56.115Z,35.91
2023-03-16T15:43:28.902Z,36.74
2023-03-16T15:45:57.736Z,37.28
2023-03-16T15:48:25.474Z,37.85
2023-03-16T15:50:58.940Z,37.36
2023-03-16T15:53:31.410Z,36.91
2023-03-16T15:56:08.850Z,36.08
2023-03-16T15:58:36.536Z,34.59
2023-03-16T16:01:04.973Z,33.65
2023-03-16T16:03:32.211Z,32.37
2023-03-16T16:05:58.905Z,31.25
2023-03-16T16:08:25.753Z,30.23
2023-03-16T16:10:53.882Z,29.46
2023-03-16T16:13:43.128Z,29.07
2023-03-16T16:16:17.054Z,27.89
2023-03-16T16:18:44.882Z,27.99
2023-03-16T16:21:17.525Z,28.55
2023-03-16T16:23:44.185Z,29.92
2023-03-16T16:26:54.742Z,31.07
2023-03-16T16:29:30.741Z,32.46
2023-03-16T16:31:57.896Z,33.85
2023-03-16T16:34:25.669Z,34.98
2023-03-16T16:36:56.662Z,35.90
2023-03-16T16:39:24.047Z,36.55
2023-03-16T16:41:54.665Z,37.30
2023-03-16T16:44:27.899Z,37.61
2023-03-16T16:46:54.958Z,38.21
2023-03-16T16:49:28.200Z,38.53
2023-03-16T16:51:55.071Z,38.88
2023-03-16T16:54:28.794Z,39.73
2023-03-16T16:56:56.601Z,40.30
2023-03-16T16:59:26.379Z,41.10
2023-03-16T17:01:59.723Z,41.86
2023-03-16T17:04:29.406Z,42.39
2023-03-16T17:07:03.029Z,43.35
2023-03-16T17:09:30.462Z,43.90
2023-03-16T17:12:01.337Z,44.30
2023-03-16T17:14:28.611Z,45.03
2023-03-16T17:16:55.461Z,45.15
2023-03-16T17:19:28.161Z,45.84
2023-03-16T17:21:57.613Z,46.19
2023-03-16T17:24:24.756Z,46.55
2023-03-16T17:26:54.915Z,46.92
2023-03-16T17:29:22.846Z,47.51
2023-03-16T17:31:50.611Z,47.44
2023-03-16T17:34:21.878Z,48.09
2023-03-16T17:36:49.029Z,48.21
2023-03-16T17:39:17.516Z,48.73
2023-03-16T17:41:44.285Z,48.86
2023-03-16T17:44:14.477Z,49.34
2023-03-16T17:46:41.610Z,49.78
2023-03-16T17:49:18.364Z,50.05
2023-03-16T17:51:45.856Z,50.24
2023-03-16T17:54:13.136Z,50.53
2023-03-16T17:56:40.696Z,50.92
2023-03-16T17:59:16.022Z,51.48
2023-03-16T18:01:43.832Z,51.50
2023-03-16T18:04:23.084Z,52.01
2023-03-16T18:06:51.460Z,51.81
2023-03-16T18:09:20.338Z,52.20
2023-03-16T18:11:50.033Z,52.40
2023-03-16T18:14:36.795Z,52.89
2023-03-16T18:17:17.153Z,53.16
2023-03-16T18:19:45.913Z,53.01
2023-03-16T18:22:21.992Z,53.26
2023-03-16T18:24:50.330Z,53.87
2023-03-16T18:27:17.160Z,53.84
2023-03-16T18:29:45.733Z,54.11
2023-03-16T18:32:27.712Z,54.52
2023-03-16T18:34:54.955Z,55.09
2023-03-16T18:37:28.114Z,55.04
2023-03-16T18:39:55.246Z,55.45
2023-03-16T18:42:27.823Z,55.46
2023-03-16T18:44:54.936Z,55.94
2023-03-16T18:47:24.226Z,55.80
2023-03-16T18:49:54.098Z,56.32
2023-03-16T18:52:29.492Z,56.58
2023-03-16T18:54:57.828Z,56.45
2023-03-16T18:57:28.145Z,56.93
2023-03-16T18:59:55.263Z,57.07
2023-03-16T19:02:37.477Z,57.12
2023-03-16T19:05:07.545Z,56.94
2023-03-16T19:07:41.072Z,57.32
2023-03-16T19:10:26.809Z,57.46
2023-03-16T19:12:54.405Z,57.84
2023-03-16T19:15:32.782Z,57.82
2023-03-16T19:17:59.985Z,57.83
2023-03-16T19:20:33.543Z,58.14
2023-03-16T19:23:06.481Z,58.52
2023-03-16T19:25:37.479Z,58.63
2023-03-16T19:28:06.328Z,58.37
2023-03-16T19:30:35.743Z,58.78
2023-03-16T19:33:03.549Z,58.50
2023-03-16T19:35:48.539Z,58.79
2023-03-16T19:38:18.407Z,58.73
2023-03-16T19:40:47.697Z,58.83
2023-03-16T19:43:18.038Z,58.85
2023-03-16T19:45:45.454Z,59.14
2023-03-16T19:48:33.442Z,59.07
2023-03-16T19:51:00.764Z,59.18
2023-03-16T19:53:27.663Z,59.47
2023-03-16T19:55:54.790Z,59.67
2023-03-16T19:58:35.003Z,59.62
2023-03-16T20:01:03.106Z,59.50
2023-03-16T20:03:32.906Z,59.58
2023-03-16T20:05:59.630Z,60.08
2023-03-16T20:08:28.956Z,59.92
2023-03-16T20:11:02.402Z,60.07
2023-03-16T20:13:31.542Z,60.48
2023-03-16T20:15:58.372Z,60.67
2023-03-16T20:18:25.105Z,60.61
2023-03-16T20:20:52.024Z,61.17
2023-03-16T20:23:18.793Z,61.41
2023-03-16T20:25:46.809Z,62.05
2023-03-16T20:28:22.583Z,62.31
2023-03-16T20:30:50.909Z,62.64
2023-03-16T20:33:24.242Z,63.01
2023-03-16T20:35:55.285Z,62.87
2023-03-16T20:38:23.115Z,63.42
2023-03-16T20:40:54.530Z,63.55
2023-03-16T20:43:33.006Z,63.69
2023-03-16T20:46:02.405Z,63.60
2023-03-16T20:48:29.407Z,63.98
2023-03-16T20:50:58.784Z,64.06
2023-03-16T20:53:25.521Z,64.38
2023-03-16T20:55:52.902Z,64.80
2023-03-16T20:58:25.601Z,64.94
2023-03-16T21:00:54.598Z,65.30
2023-03-16T21:03:23.762Z,65.23
2023-03-16T21:05:52.107Z,65.54
2023-03-16T21:08:19.877Z,65.67
2023-03-16T21:10:48.640Z,65.96
2023-03-16T21:13:24.386Z,66.36
2023-03-16T21:15:52.246Z,66.58
2023-03-16T21:18:20.853Z,66.43
2023-03-16T21:20:49.740Z,66.58
2023-03-16T21:23:20.857Z,66.98
2023-03-16T21:25:52.135Z,67.38
2023-03-16T21:28:20.074Z,67.63
2023-03-16T21:30:49.399Z,67.69
2023-03-16T21:33:30.166Z,68.15
2023-03-16T21:35:57.687Z,68.08
2023-03-16T21:38:26.120Z,68.70
2023-03-16T21:40:53.239Z,68.92
2023-03-16T21:43:19.983Z,68.70
2023-03-16T21:45:48.028Z,68.96
2023-03-16T21:48:24.257Z,69.35
2023-03-16T21:50:52.517Z,69.38
2023-03-16T21:53:28.935Z,69.89
2023-03-16T21:55:58.090Z,69.77
2023-03-16T21:58:24.778Z,70.28
2023-03-16T22:00:53.731Z,70.09
2023-03-16T22:03:31.212Z,70.38
2023-03-16T22:06:03.140Z,70.55
2023-03-16T22:08:32.801Z,70.69
2023-03-16T22:11:00.610Z,71.00
2023-03-16T22:13:28.378Z,71.08
2023-03-16T22:15:57.608Z,71.04
2023-03-16T22:18:37.340Z,71.46
2023-03-16T22:21:25.012Z,71.37
2023-03-16T22:23:52.293Z,71.47
2023-03-16T22:26:21.100Z,71.90
2023-03-16T22:28:48.356Z,71.85
2023-03-16T22:31:18.948Z,72.03
2023-03-16T22:33:47.831Z,72.04
2023-03-16T22:36:20.598Z,72.30
2023-03-16T22:38:50.382Z,72.47
2023-03-16T22:41:18.078Z,72.40
2023-03-16T22:43:46.062Z,72.39
2023-03-16T22:46:24.174Z,72.35
2023-03-16T22:48:52.399Z,72.38
2023-03-16T22:51:38.335Z,72.49
2023-03-16T22:54:08.747Z,72.45
2023-03-16T22:56:36.155Z,72.38
2023-03-16T22:59:07.649Z,72.42
2023-03-16T23:01:42.115Z,72.38
2023-03-16T23:04:20.998Z,72.23
2023-03-16T23:06:51.616Z,72.40
2023-03-16T23:09:20.686Z,72.40
2023-03-16T23:11:50.131Z,72.56
2023-03-16T23:14:27.575Z,72.41
2023-03-16T23:16:54.420Z,72.61
2023-03-16T23:19:27.183Z,72.53
2023-03-16T23:21:56.945Z,72.52
2023-03-16T23:24:24.196Z,72.42
2023-03-16T23:26:51.955Z,72.20
2023-03-16T23:29:19.193Z,72.22
2023-03-16T23:31:46.269Z,72.28
2023-03-16T23:34:16.388Z,72.28
2023-03-16T23:36:46.169Z,71.95
2023-03-16T23:39:13.225Z,72.24
2023-03-16T23:41:44.237Z,72.23
2023-03-16T23:44:21.032Z,72.10
2023-03-16T23:46:47.882Z,71.91
2023-03-16T23:49:22.296Z,71.72
2023-03-16T23:51:49.324Z,71.81
2023-03-16T23:54:28.569Z,71.61
2023-03-16T23:56:55.724Z,71.55
2023-03-16T23:59:23.574Z,71.33
